createdAt,value
2019-03-24T00:01:24.476Z,9.82
2019-03-24T00:03:54.370Z,9.80
2019-03-24T00:06:24.228Z,9.79
2019-03-24T00:08:54.488Z,9.78
2019-03-24T00:11:24.377Z,9.75
2019-03-24T00:13:54.276Z,9.76
2019-03-24T00:16:24.151Z,9.77
2019-03-24T00:18:54.037Z,9.77
2019-03-24T00:21:23.920Z,9.74
2019-03-24T00:23:53.837Z,9.73
2019-03-24T00:26:23.707Z,9.72
2019-03-24T00:28:53.613Z,9.73
2019-03-24T00:31:23.507Z,9.70
2019-03-24T00:33:53.388Z,9.68
2019-03-24T00:36:23.303Z,9.68
2019-03-24T00:38:53.201Z,9.67
2019-03-24T00:41:23.065Z,9.66
2019-03-24T00:43:52.967Z,9.65
2019-03-24T00:46:22.837Z,9.65
2019-03-24T00:48:52.733Z,9.62
2019-03-24T00:51:22.613Z,9.62
2019-03-24T00:53:52.470Z,9.63
2019-03-24T00:56:22.362Z,9.64
2019-03-24T00:58:52.533Z,9.64
2019-03-24T01:01:22.435Z,9.63
2019-03-24T01:03:52.698Z,9.64
2019-03-24T01:06:22.666Z,9.65
2019-03-24T01:08:52.590Z,9.66
2019-03-24T01:11:22.499Z,9.65
2019-03-24T01:13:52.374Z,9.64
2019-03-24T01:16:22.271Z,9.65
2019-03-24T01:18:52.157Z,9.63
2019-03-24T01:21:22.035Z,9.62
2019-03-24T01:23:51.902Z,9.61
2019-03-24T01:26:21.804Z,9.61
2019-03-24T01:28:51.690Z,9.58
2019-03-24T01:31:21.556Z,9.58
2019-03-24T01:33:51.451Z,9.58
2019-03-24T01:36:21.321Z,9.57
2019-03-24T01:38:51.218Z,9.55
2019-03-24T01:41:21.091Z,9.55
2019-03-24T01:43:50.987Z,9.54
2019-03-24T01:46:20.884Z,9.54
2019-03-24T01:48:51.052Z,9.54
2019-03-24T01:51:20.945Z,9.54
2019-03-24T01:53:51.088Z,9.52
2019-03-24T01:56:20.965Z,9.52
2019-03-24T01:58:50.826Z,9.51
2019-03-24T02:01:20.746Z,9.51
2019-03-24T02:03:50.629Z,9.52
2019-03-24T02:06:20.896Z,9.51
2019-03-24T02:08:50.801Z,9.54
2019-03-24T02:11:20.894Z,9.53
2019-03-24T02:13:50.739Z,9.54
2019-03-24T02:16:20.627Z,9.55
2019-03-24T02:18:50.489Z,9.54
2019-03-24T02:21:20.399Z,9.53
2019-03-24T02:23:50.279Z,9.53
2019-03-24T02:26:20.133Z,9.53
2019-03-24T02:28:50.029Z,9.52
2019-03-24T02:31:19.913Z,9.51
2019-03-24T02:33:49.783Z,9.51
2019-03-24T02:36:19.675Z,9.50
2019-03-24T02:38:49.567Z,9.50
2019-03-24T02:41:19.435Z,9.48
2019-03-24T02:43:49.316Z,9.49
2019-03-24T02:46:24.740Z,9.49
2019-03-24T02:48:50.804Z,9.49
2019-03-24T02:51:20.664Z,9.49
2019-03-24T02:53:50.640Z,9.47
2019-03-24T02:56:20.516Z,9.46
2019-03-24T02:58:50.373Z,9.46
2019-03-24T03:01:20.260Z,9.45
2019-03-24T03:03:50.151Z,9.44
2019-03-24T03:06:20.018Z,9.42
2019-03-24T03:08:49.898Z,9.40
2019-03-24T03:11:19.820Z,9.38
2019-03-24T03:13:49.696Z,9.38
2019-03-24T03:16:19.555Z,9.37
2019-03-24T03:18:49.448Z,9.38
2019-03-24T03:21:19.329Z,9.38
2019-03-24T03:23:49.175Z,9.40
2019-03-24T03:26:19.088Z,9.40
2019-03-24T03:28:49.336Z,9.40
2019-03-24T03:31:19.184Z,9.39
2019-03-24T03:33:49.052Z,9.37
2019-03-24T03:36:18.955Z,9.37
2019-03-24T03:38:48.833Z,9.37
2019-03-24T03:41:18.712Z,9.37
2019-03-24T03:43:48.559Z,9.37
2019-03-24T03:46:18.440Z,9.36
2019-03-24T03:48:48.335Z,9.35
2019-03-24T03:51:18.557Z,9.36
2019-03-24T03:53:48.458Z,9.35
2019-03-24T03:56:18.328Z,9.33
2019-03-24T03:58:48.241Z,9.33
2019-03-24T04:01:18.081Z,9.32
2019-03-24T04:03:47.972Z,9.31
2019-03-24T04:06:17.868Z,9.31
2019-03-24T04:08:47.742Z,9.30
2019-03-24T04:11:17.657Z,9.29
2019-03-24T04:13:47.539Z,9.27
2019-03-24T04:16:17.398Z,9.22
2019-03-24T04:18:47.282Z,9.19
2019-03-24T04:21:17.153Z,9.17
2019-03-24T04:23:47.041Z,9.16
2019-03-24T04:26:16.920Z,9.11
2019-03-24T04:28:46.821Z,9.10
2019-03-24T04:31:16.674Z,9.05
2019-03-24T04:33:46.576Z,9.03
2019-03-24T04:36:16.459Z,9.01
2019-03-24T04:38:46.681Z,9.00
2019-03-24T04:41:16.534Z,8.96
2019-03-24T04:43:46.412Z,8.94
2019-03-24T04:46:16.283Z,8.90
2019-03-24T04:48:46.155Z,8.88
2019-03-24T04:51:16.358Z,8.83
2019-03-24T04:53:46.226Z,8.82
2019-03-24T04:56:16.124Z,8.80
2019-03-24T04:58:46.000Z,8.77
2019-03-24T05:01:15.869Z,8.73
2019-03-24T05:03:46.133Z,8.69
2019-03-24T05:06:16.302Z,8.64
2019-03-24T05:08:46.685Z,8.59
2019-03-24T05:11:16.905Z,8.56
2019-03-24T05:13:46.843Z,8.51
2019-03-24T05:16:17.090Z,8.48
2019-03-24T05:18:46.959Z,8.45
2019-03-24T05:21:16.812Z,8.43
2019-03-24T05:23:46.691Z,8.40
2019-03-24T05:26:16.569Z,8.36
2019-03-24T05:28:46.457Z,8.32
2019-03-24T05:31:16.317Z,8.31
2019-03-24T05:33:46.217Z,8.28
2019-03-24T05:36:16.079Z,8.25
2019-03-24T05:38:45.957Z,8.23
2019-03-24T05:41:15.820Z,8.19
2019-03-24T05:43:46.010Z,8.15
2019-03-24T05:46:15.878Z,8.12
2019-03-24T05:48:46.131Z,8.05
2019-03-24T05:51:16.012Z,7.99
2019-03-24T05:53:45.886Z,7.96
2019-03-24T05:56:15.766Z,7.91
2019-03-24T05:58:45.661Z,7.88
2019-03-24T06:01:15.522Z,7.86
2019-03-24T06:03:45.411Z,7.83
2019-03-24T06:06:15.275Z,7.77
2019-03-24T06:08:45.556Z,7.74
2019-03-24T06:11:15.479Z,7.72
2019-03-24T06:13:45.382Z,7.70
2019-03-24T06:16:15.272Z,7.68
2019-03-24T06:18:45.120Z,7.66
2019-03-24T06:21:15.035Z,7.62
2019-03-24T06:23:44.890Z,7.59
2019-03-24T06:26:14.789Z,7.54
2019-03-24T06:28:44.668Z,7.46
2019-03-24T06:31:14.546Z,7.39
2019-03-24T06:33:44.392Z,7.33
2019-03-24T06:36:14.292Z,7.27
2019-03-24T06:38:44.136Z,7.26
2019-03-24T06:41:14.065Z,7.26
2019-03-24T06:43:43.982Z,7.26
2019-03-24T06:46:15.072Z,7.26
2019-03-24T06:48:45.050Z,7.26
2019-03-24T06:51:14.913Z,7.24
2019-03-24T06:53:44.780Z,7.24
2019-03-24T06:56:14.640Z,7.25
2019-03-24T06:58:44.531Z,7.26
2019-03-24T07:01:14.432Z,7.27
2019-03-24T07:03:44.294Z,7.31
2019-03-24T07:06:14.190Z,7.33
2019-03-24T07:08:44.073Z,7.35
2019-03-24T07:11:14.083Z,7.38
2019-03-24T07:13:43.954Z,7.41
2019-03-24T07:16:15.279Z,7.43
2019-03-24T07:18:45.185Z,7.47
2019-03-24T07:21:15.076Z,7.51
2019-03-24T07:23:44.972Z,7.54
2019-03-24T07:26:14.919Z,7.57
2019-03-24T07:28:44.751Z,7.62
2019-03-24T07:31:15.009Z,7.66
2019-03-24T07:33:44.903Z,7.72
2019-03-24T07:36:14.756Z,7.78
2019-03-24T07:38:44.651Z,7.85
2019-03-24T07:41:14.538Z,7.92
2019-03-24T07:43:44.395Z,7.98
2019-03-24T07:46:14.277Z,8.04
2019-03-24T07:48:44.166Z,8.09
2019-03-24T07:51:44.070Z,8.15
2019-03-24T07:54:13.960Z,8.19
2019-03-24T07:56:43.829Z,8.24
2019-03-24T07:59:13.726Z,8.27
2019-03-24T08:01:43.595Z,8.31
2019-03-24T08:04:13.530Z,8.35
2019-03-24T08:06:43.400Z,8.40
2019-03-24T08:09:13.671Z,8.43
2019-03-24T08:11:43.541Z,8.48
2019-03-24T08:14:13.480Z,8.52
2019-03-24T08:16:43.330Z,8.58
2019-03-24T08:19:13.207Z,8.66
2019-03-24T08:21:43.054Z,8.73
2019-03-24T08:24:12.951Z,8.79
2019-03-24T08:26:42.825Z,8.85
2019-03-24T08:29:12.718Z,8.89
2019-03-24T08:31:42.618Z,8.91
2019-03-24T08:34:12.500Z,8.94
2019-03-24T08:36:42.380Z,8.96
2019-03-24T08:39:12.254Z,8.96
2019-03-24T08:41:42.167Z,8.96
2019-03-24T08:44:12.056Z,8.96
2019-03-24T08:46:44.183Z,8.96
2019-03-24T08:49:13.863Z,8.98
2019-03-24T08:51:43.715Z,8.99
2019-03-24T08:54:13.604Z,9.02
2019-03-24T08:56:43.468Z,9.03
2019-03-24T08:59:13.349Z,9.06
2019-03-24T09:01:43.213Z,9.08
2019-03-24T09:04:13.085Z,9.09
2019-03-24T09:06:42.950Z,9.12
2019-03-24T09:09:12.840Z,9.11
2019-03-24T09:11:42.703Z,9.14
2019-03-24T09:14:12.582Z,9.16
2019-03-24T09:16:42.505Z,9.18
2019-03-24T09:19:12.382Z,9.20
2019-03-24T09:21:42.275Z,9.21
2019-03-24T09:24:12.268Z,9.21
2019-03-24T09:26:42.137Z,9.22
2019-03-24T09:29:11.998Z,9.21
2019-03-24T09:31:41.907Z,9.23
2019-03-24T09:34:11.770Z,9.25
2019-03-24T09:36:41.954Z,9.26
2019-03-24T09:39:11.806Z,9.26
2019-03-24T09:41:41.682Z,9.27
2019-03-24T09:44:11.548Z,9.29
2019-03-24T09:46:41.437Z,9.31
2019-03-24T09:49:11.296Z,9.30
2019-03-24T09:51:41.186Z,9.31
2019-03-24T09:54:11.053Z,9.35
2019-03-24T09:56:40.939Z,9.36
2019-03-24T09:59:11.090Z,9.38
2019-03-24T10:01:40.972Z,9.42
2019-03-24T10:04:10.846Z,9.42
2019-03-24T10:06:40.723Z,9.45
2019-03-24T10:09:10.610Z,9.48
2019-03-24T10:11:40.482Z,9.50
2019-03-24T10:14:10.378Z,9.53
2019-03-24T10:16:40.275Z,9.53
2019-03-24T10:19:14.272Z,9.52
2019-03-24T10:21:41.788Z,9.51
2019-03-24T10:24:11.681Z,9.52
2019-03-24T10:26:41.582Z,9.54
2019-03-24T10:29:11.437Z,9.56
2019-03-24T10:31:42.661Z,9.59
2019-03-24T10:34:12.576Z,9.63
2019-03-24T10:36:42.475Z,9.66
2019-03-24T10:39:12.709Z,9.71
2019-03-24T10:41:42.586Z,9.72
2019-03-24T10:44:12.449Z,9.75
2019-03-24T10:46:42.355Z,9.75
2019-03-24T10:49:12.253Z,9.76
2019-03-24T10:51:42.105Z,9.79
2019-03-24T10:54:11.987Z,9.81
2019-03-24T10:56:41.895Z,9.82
2019-03-24T10:59:12.086Z,9.83
2019-03-24T11:01:41.972Z,9.86
2019-03-24T11:04:11.838Z,9.89
2019-03-24T11:06:41.718Z,9.90
2019-03-24T11:09:11.609Z,9.92
2019-03-24T11:11:41.778Z,9.95
2019-03-24T11:14:11.686Z,9.98
2019-03-24T11:16:42.034Z,10.00
2019-03-24T11:19:11.937Z,10.03
2019-03-24T11:21:42.097Z,10.04
2019-03-24T11:24:11.998Z,10.08
2019-03-24T11:26:41.879Z,10.08
2019-03-24T11:29:11.771Z,10.09
2019-03-24T11:31:41.682Z,10.12
2019-03-24T11:34:11.575Z,10.14
2019-03-24T11:36:41.789Z,10.19
2019-03-24T11:39:11.711Z,10.23
2019-03-24T11:41:41.566Z,10.29
2019-03-24T11:44:11.498Z,10.36
2019-03-24T11:46:41.385Z,10.38
2019-03-24T11:49:20.528Z,10.40
2019-03-24T11:51:50.403Z,10.42
2019-03-24T11:54:20.288Z,10.46
2019-03-24T11:56:50.187Z,10.55
2019-03-24T11:59:20.096Z,10.65
2019-03-24T12:01:49.990Z,10.78
2019-03-24T12:04:19.878Z,10.90
2019-03-24T12:06:51.593Z,10.90
2019-03-24T12:09:21.476Z,10.99
2019-03-24T12:11:51.695Z,11.06
2019-03-24T12:14:21.567Z,11.10
2019-03-24T12:16:51.486Z,11.10
2019-03-24T12:19:21.376Z,11.15
2019-03-24T12:21:51.275Z,11.24
2019-03-24T12:24:21.146Z,11.35
2019-03-24T12:26:51.051Z,11.52
2019-03-24T12:29:20.954Z,11.52
2019-03-24T12:31:50.837Z,11.60
2019-03-24T12:34:20.702Z,11.66
2019-03-24T12:36:51.032Z,11.72
2019-03-24T12:39:20.911Z,11.76
2019-03-24T12:41:50.800Z,11.78
2019-03-24T12:44:20.703Z,11.96
2019-03-24T12:46:51.020Z,11.96
2019-03-24T12:49:20.892Z,12.07
2019-03-24T12:51:50.786Z,12.10
2019-03-24T12:54:20.647Z,12.15
2019-03-24T12:56:50.534Z,12.22
2019-03-24T12:59:20.417Z,12.34
2019-03-24T13:01:52.777Z,12.35
2019-03-24T13:04:21.931Z,12.36
2019-03-24T13:06:51.812Z,12.23
2019-03-24T13:09:21.705Z,12.27
2019-03-24T13:11:51.589Z,12.23
2019-03-24T13:14:21.484Z,12.23
2019-03-24T13:16:51.438Z,12.33
2019-03-24T13:19:21.348Z,12.46
2019-03-24T13:21:51.570Z,12.47
2019-03-24T13:24:21.442Z,12.55
2019-03-24T13:26:51.341Z,12.58
2019-03-24T13:29:21.255Z,12.68
2019-03-24T13:31:51.150Z,12.58
2019-03-24T13:34:21.046Z,12.63
2019-03-24T13:36:50.913Z,12.48
2019-03-24T13:39:20.810Z,12.33
2019-03-24T13:41:50.797Z,12.23
2019-03-24T13:44:20.679Z,12.31
2019-03-24T13:46:50.602Z,12.48
2019-03-24T13:49:20.479Z,12.56
2019-03-24T13:51:50.744Z,12.59
2019-03-24T13:54:20.634Z,12.65
2019-03-24T13:56:50.595Z,12.70
2019-03-24T13:59:20.565Z,12.71
2019-03-24T14:01:50.560Z,12.74
2019-03-24T14:04:20.416Z,12.74
2019-03-24T14:06:50.426Z,12.81
2019-03-24T14:09:20.329Z,12.89
2019-03-24T14:11:50.270Z,12.86
2019-03-24T14:14:20.219Z,12.86
2019-03-24T14:16:50.161Z,13.08
2019-03-24T14:19:20.058Z,13.09
2019-03-24T14:21:51.049Z,13.05
2019-03-24T14:24:20.943Z,13.05
2019-03-24T14:26:50.830Z,13.05
2019-03-24T14:29:20.730Z,13.06
2019-03-24T14:31:50.612Z,13.06
2019-03-24T14:34:20.527Z,13.02
2019-03-24T14:36:50.427Z,12.90
2019-03-24T14:39:20.320Z,12.90
2019-03-24T14:41:50.223Z,12.92
2019-03-24T14:44:20.116Z,12.92
2019-03-24T14:46:50.265Z,13.02
2019-03-24T14:49:20.165Z,13.02
2019-03-24T14:51:50.085Z,12.89
2019-03-24T14:54:19.965Z,12.89
2019-03-24T14:56:49.866Z,12.94
2019-03-24T14:59:19.748Z,12.99
2019-03-24T15:01:53.540Z,13.02
2019-03-24T15:04:23.715Z,13.04
2019-03-24T15:06:53.636Z,13.04
2019-03-24T15:09:23.524Z,13.08
2019-03-24T15:11:53.738Z,13.13
2019-03-24T15:14:23.655Z,13.13
2019-03-24T15:16:53.575Z,13.13
2019-03-24T15:19:23.520Z,13.21
2019-03-24T15:21:53.406Z,13.21
2019-03-24T15:24:23.284Z,13.18
2019-03-24T15:26:53.158Z,13.19
2019-03-24T15:29:23.070Z,13.19
2019-03-24T15:31:52.958Z,13.16
2019-03-24T15:34:22.866Z,13.19
2019-03-24T15:36:52.745Z,13.16
2019-03-24T15:39:22.668Z,13.16
2019-03-24T15:41:52.573Z,13.28
2019-03-24T15:44:22.493Z,13.28
2019-03-24T15:46:52.394Z,13.35
2019-03-24T15:49:22.312Z,13.35
2019-03-24T15:51:52.540Z,13.37
2019-03-24T15:54:22.414Z,13.34
2019-03-24T15:56:52.287Z,13.34
2019-03-24T15:59:22.185Z,13.39
2019-03-24T16:01:52.066Z,13.35
2019-03-24T16:04:21.961Z,13.27
2019-03-24T16:06:51.826Z,13.30
2019-03-24T16:09:21.737Z,13.30
2019-03-24T16:11:51.612Z,13.37
2019-03-24T16:14:21.512Z,13.45
2019-03-24T16:16:51.382Z,13.37
2019-03-24T16:19:21.313Z,13.46
2019-03-24T16:21:51.181Z,13.51
2019-03-24T16:24:21.078Z,13.44
2019-03-24T16:26:51.336Z,13.44
2019-03-24T16:29:21.547Z,13.58
2019-03-24T16:31:51.430Z,13.58
2019-03-24T16:34:21.333Z,13.54
2019-03-24T16:36:51.227Z,13.58
2019-03-24T16:39:21.510Z,13.58
2019-03-24T16:41:51.407Z,13.61
2019-03-24T16:44:21.691Z,13.61
2019-03-24T16:46:51.605Z,13.56
2019-03-24T16:49:21.514Z,13.45
2019-03-24T16:51:51.428Z,13.38
2019-03-24T16:54:21.328Z,13.38
2019-03-24T16:56:52.263Z,13.38
2019-03-24T16:59:22.153Z,13.45
2019-03-24T17:01:52.014Z,13.49
2019-03-24T17:04:21.934Z,13.52
2019-03-24T17:06:51.850Z,13.52
2019-03-24T17:09:27.871Z,13.52
2019-03-24T17:11:59.804Z,13.42
2019-03-24T17:14:29.690Z,13.29
2019-03-24T17:16:59.631Z,13.29
2019-03-24T17:19:29.529Z,13.25
2019-03-24T17:21:59.449Z,13.24
2019-03-24T17:24:29.350Z,13.32
2019-03-24T17:26:59.255Z,13.28
2019-03-24T17:29:35.042Z,13.28
2019-03-24T17:32:04.918Z,12.93
2019-03-24T17:34:34.826Z,12.93
2019-03-24T17:37:04.697Z,12.63
2019-03-24T17:39:34.564Z,12.38
2019-03-24T17:42:04.505Z,11.87
2019-03-24T17:44:34.372Z,11.87
2019-03-24T17:47:04.297Z,11.67
2019-03-24T17:49:34.201Z,11.50
2019-03-24T17:52:04.214Z,11.33
2019-03-24T17:54:34.074Z,11.20
2019-03-24T17:57:03.967Z,11.08
2019-03-24T17:59:34.172Z,10.94
2019-03-24T18:02:13.882Z,10.85
2019-03-24T18:04:35.653Z,10.76
2019-03-24T18:07:05.671Z,10.66
2019-03-24T18:09:35.531Z,10.59
2019-03-24T18:12:05.375Z,10.51
2019-03-24T18:14:35.656Z,10.43
2019-03-24T18:17:05.890Z,10.36
2019-03-24T18:19:35.786Z,10.30
2019-03-24T18:22:11.573Z,10.23
2019-03-24T18:24:37.705Z,10.17
2019-03-24T18:27:07.613Z,10.09
2019-03-24T18:29:37.797Z,10.02
2019-03-24T18:32:07.677Z,9.96
2019-03-24T18:34:37.600Z,9.91
2019-03-24T18:37:07.865Z,9.86
2019-03-24T18:39:37.780Z,9.81
2019-03-24T18:42:07.681Z,9.76
2019-03-24T18:44:37.986Z,9.72
2019-03-24T18:47:07.929Z,9.67
2019-03-24T18:49:38.143Z,9.62
2019-03-24T18:52:08.004Z,9.57
2019-03-24T18:54:37.920Z,9.52
2019-03-24T18:57:07.819Z,9.48
2019-03-24T18:59:38.032Z,9.44
2019-03-24T19:02:07.901Z,9.40
2019-03-24T19:04:37.792Z,9.36
2019-03-24T19:07:07.728Z,9.34
2019-03-24T19:09:37.721Z,9.32
2019-03-24T19:12:07.918Z,9.30
2019-03-24T19:14:40.116Z,9.27
2019-03-24T19:17:10.218Z,9.24
2019-03-24T19:19:40.280Z,9.22
2019-03-24T19:22:10.581Z,9.19
2019-03-24T19:24:40.497Z,9.18
2019-03-24T19:27:10.451Z,9.16
2019-03-24T19:29:40.658Z,9.12
2019-03-24T19:32:10.554Z,9.10
2019-03-24T19:34:40.426Z,9.09
2019-03-24T19:37:10.407Z,9.07
2019-03-24T19:39:40.345Z,9.03
2019-03-24T19:42:10.250Z,9.02
2019-03-24T19:44:40.147Z,9.01
2019-03-24T19:47:10.014Z,8.99
2019-03-24T19:49:40.240Z,8.96
2019-03-24T19:52:10.436Z,8.94
2019-03-24T19:54:40.383Z,8.93
2019-03-24T19:57:10.303Z,8.91
2019-03-24T19:59:40.531Z,8.89
2019-03-24T20:02:10.845Z,8.86
2019-03-24T20:04:40.755Z,8.83
2019-03-24T20:07:10.942Z,8.81
2019-03-24T20:09:40.821Z,8.79
2019-03-24T20:12:10.708Z,8.77
2019-03-24T20:14:40.605Z,8.76
2019-03-24T20:17:10.498Z,8.75
2019-03-24T20:19:40.389Z,8.74
2019-03-24T20:22:10.276Z,8.72
2019-03-24T20:24:40.170Z,8.71
2019-03-24T20:27:10.057Z,8.71
2019-03-24T20:29:40.008Z,8.70
2019-03-24T20:32:09.889Z,8.69
2019-03-24T20:34:40.196Z,8.69
2019-03-24T20:37:10.105Z,8.69
2019-03-24T20:39:40.008Z,8.69
2019-03-24T20:42:10.274Z,8.69
2019-03-24T20:44:40.145Z,8.69
2019-03-24T20:47:10.056Z,8.71
2019-03-24T20:49:39.922Z,8.71
2019-03-24T20:52:09.800Z,8.72
2019-03-24T20:54:39.719Z,8.73
2019-03-24T20:57:09.631Z,8.73
2019-03-24T20:59:39.522Z,8.73
2019-03-24T21:02:09.431Z,8.72
2019-03-24T21:04:39.351Z,8.72
2019-03-24T21:07:09.543Z,8.72
2019-03-24T21:09:39.535Z,8.71
2019-03-24T21:12:09.446Z,8.72
2019-03-24T21:14:39.345Z,8.73
2019-03-24T21:17:09.235Z,8.73
2019-03-24T21:19:39.492Z,8.75
2019-03-24T21:22:09.382Z,8.73
2019-03-24T21:24:39.681Z,8.73
2019-03-24T21:27:09.591Z,8.75
2019-03-24T21:29:39.487Z,8.76
2019-03-24T21:32:09.389Z,8.75
2019-03-24T21:34:39.272Z,8.75
2019-03-24T21:37:09.262Z,8.74
2019-03-24T21:39:39.137Z,8.74
2019-03-24T21:42:09.036Z,8.74
2019-03-24T21:44:38.928Z,8.74
2019-03-24T21:47:08.944Z,8.75
2019-03-24T21:49:38.856Z,8.76
2019-03-24T21:52:08.807Z,8.77
2019-03-24T21:54:38.727Z,8.78
2019-03-24T21:57:08.650Z,8.80
2019-03-24T21:59:38.612Z,8.80
2019-03-24T22:02:08.655Z,8.82
2019-03-24T22:04:38.621Z,8.83
2019-03-24T22:07:08.530Z,8.84
2019-03-24T22:09:38.545Z,8.86
2019-03-24T22:12:08.499Z,8.88
2019-03-24T22:14:38.769Z,8.90
2019-03-24T22:17:08.712Z,8.92
2019-03-24T22:19:39.700Z,8.94
2019-03-24T22:22:10.690Z,8.96
2019-03-24T22:24:40.692Z,8.99
2019-03-24T22:27:10.863Z,9.01
2019-03-24T22:29:41.092Z,9.03
2019-03-24T22:32:12.791Z,9.05
2019-03-24T22:34:42.686Z,9.07
2019-03-24T22:37:16.096Z,9.09
2019-03-24T22:39:47.427Z,9.11
2019-03-24T22:42:17.320Z,9.13
2019-03-24T22:44:47.191Z,9.14
2019-03-24T22:47:17.093Z,9.17
2019-03-24T22:49:47.000Z,9.18
2019-03-24T22:52:17.193Z,9.19
2019-03-24T22:54:49.403Z,9.21
2019-03-24T22:57:19.307Z,9.21
2019-03-24T22:59:50.251Z,9.21
2019-03-24T23:02:20.830Z,9.24
2019-03-24T23:04:50.718Z,9.25
2019-03-24T23:07:20.687Z,9.25
2019-03-24T23:09:50.622Z,9.27
2019-03-24T23:12:20.774Z,9.28
2019-03-24T23:14:50.678Z,9.29
2019-03-24T23:17:20.664Z,9.30
2019-03-24T23:19:50.591Z,9.32
2019-03-24T23:22:21.523Z,9.32
2019-03-24T23:24:51.460Z,9.32
2019-03-24T23:27:21.380Z,9.33
2019-03-24T23:29:51.260Z,9.34
2019-03-24T23:32:21.151Z,9.34
2019-03-24T23:34:51.024Z,9.34
2019-03-24T23:37:20.916Z,9.33
2019-03-24T23:39:50.868Z,9.33
2019-03-24T23:42:21.110Z,9.32
2019-03-24T23:44:50.999Z,9.32
2019-03-24T23:47:20.896Z,9.31
2019-03-24T23:49:50.808Z,9.30
2019-03-24T23:52:21.602Z,9.30
2019-03-24T23:54:51.782Z,9.29
2019-03-24T23:57:21.686Z,9.28
2019-03-24T23:59:51.557Z,9.27
